sensor_id;sensor_type;location;lat;lon;timestamp;P1;durP1;ratioP1;P2;durP2;ratioP2
71665;SDS011;59503;53.486;10.196;2022-11-12T00:00:31;21.17;;;9.67;;
71665;SDS011;59503;53.486;10.196;2022-11-12T00:02:57;17.55;;;8.82;;
71665;SDS011;59503;53.486;10.196;2022-11-12T00:05:23;22.33;;;8.77;;
71665;SDS011;59503;53.486;10.196;2022-11-12T00:07:49;24.90;;;8.77;;
71665;SDS011;59503;53.486;10.196;2022-11-12T00:10:14;17.53;;;9.40;;
71665;SDS011;59503;53.486;10.196;2022-11-12T00:12:40;24.50;;;9.02;;
71665;SDS011;59503;53.486;10.196;2022-11-12T00:15:06;22.37;;;10.03;;
71665;SDS011;59503;53.486;10.196;2022-11-12T00:17:32;19.30;;;9.85;;
71665;SDS011;59503;53.486;10.196;2022-11-12T00:19:57;19.00;;;9.27;;
71665;SDS011;59503;53.486;10.196;2022-11-12T00:22:22;24.80;;;10.32;;
71665;SDS011;59503;53.486;10.196;2022-11-12T00:24:48;20.57;;;9.60;;
71665;SDS011;59503;53.486;10.196;2022-11-12T00:27:13;20.17;;;9.47;;
71665;SDS011;59503;53.486;10.196;2022-11-12T00:29:39;24.73;;;11.07;;
71665;SDS011;59503;53.486;10.196;2022-11-12T00:32:05;32.33;;;12.67;;
71665;SDS011;59503;53.486;10.196;2022-11-12T00:34:31;37.63;;;11.93;;
71665;SDS011;59503;53.486;10.196;2022-11-12T00:36:57;28.70;;;11.13;;
71665;SDS011;59503;53.486;10.196;2022-11-12T00:39:23;30.58;;;13.65;;
71665;SDS011;59503;53.486;10.196;2022-11-12T00:41:49;27.55;;;11.60;;
71665;SDS011;59503;53.486;10.196;2022-11-12T00:44:14;25.03;;;10.53;;
71665;SDS011;59503;53.486;10.196;2022-11-12T00:46:39;23.63;;;10.07;;
71665;SDS011;59503;53.486;10.196;2022-11-12T00:49:05;29.40;;;11.85;;
71665;SDS011;59503;53.486;10.196;2022-11-12T00:51:30;26.97;;;12.00;;
71665;SDS011;59503;53.486;10.196;2022-11-12T00:53:56;25.43;;;11.73;;
71665;SDS011;59503;53.486;10.196;2022-11-12T00:56:21;34.17;;;11.37;;
71665;SDS011;59503;53.486;10.196;2022-11-12T00:58:46;29.60;;;12.87;;
71665;SDS011;59503;53.486;10.196;2022-11-12T01:01:13;26.35;;;11.77;;
71665;SDS011;59503;53.486;10.196;2022-11-12T01:03:39;24.17;;;11.43;;
71665;SDS011;59503;53.486;10.196;2022-11-12T01:06:07;24.13;;;10.65;;
71665;SDS011;59503;53.486;10.196;2022-11-12T01:08:35;23.00;;;9.98;;
71665;SDS011;59503;53.486;10.196;2022-11-12T01:11:20;30.63;;;12.02;;
71665;SDS011;59503;53.486;10.196;2022-11-12T01:13:53;23.30;;;10.57;;
71665;SDS011;59503;53.486;10.196;2022-11-12T01:16:25;21.95;;;9.88;;
71665;SDS011;59503;53.486;10.196;2022-11-12T01:18:54;24.10;;;10.85;;
71665;SDS011;59503;53.486;10.196;2022-11-12T01:21:22;25.98;;;11.00;;
71665;SDS011;59503;53.486;10.196;2022-11-12T01:23:49;26.95;;;11.68;;
71665;SDS011;59503;53.486;10.196;2022-11-12T01:26:15;24.67;;;12.07;;
71665;SDS011;59503;53.486;10.196;2022-11-12T01:28:42;26.83;;;11.68;;
71665;SDS011;59503;53.486;10.196;2022-11-12T01:31:09;27.93;;;11.80;;
71665;SDS011;59503;53.486;10.196;2022-11-12T01:33:35;24.55;;;11.40;;
71665;SDS011;59503;53.486;10.196;2022-11-12T01:36:00;26.23;;;11.73;;
71665;SDS011;59503;53.486;10.196;2022-11-12T01:38:26;19.02;;;10.05;;
71665;SDS011;59503;53.486;10.196;2022-11-12T01:40:51;24.40;;;10.70;;
71665;SDS011;59503;53.486;10.196;2022-11-12T01:43:16;21.20;;;10.60;;
71665;SDS011;59503;53.486;10.196;2022-11-12T01:45:43;22.07;;;10.43;;
71665;SDS011;59503;53.486;10.196;2022-11-12T01:48:22;23.45;;;10.27;;
71665;SDS011;59503;53.486;10.196;2022-11-12T01:50:57;23.83;;;9.93;;
71665;SDS011;59503;53.486;10.196;2022-11-12T01:53:23;20.13;;;9.80;;
71665;SDS011;59503;53.486;10.196;2022-11-12T01:55:51;22.58;;;10.13;;
71665;SDS011;59503;53.486;10.196;2022-11-12T01:58:19;18.75;;;8.88;;
71665;SDS011;59503;53.486;10.196;2022-11-12T02:00:48;19.75;;;9.60;;
71665;SDS011;59503;53.486;10.196;2022-11-12T02:03:16;23.20;;;9.53;;
71665;SDS011;59503;53.486;10.196;2022-11-12T02:05:45;17.08;;;9.55;;
71665;SDS011;59503;53.486;10.196;2022-11-12T02:08:13;19.85;;;9.23;;
71665;SDS011;59503;53.486;10.196;2022-11-12T02:10:39;19.37;;;9.60;;
71665;SDS011;59503;53.486;10.196;2022-11-12T02:13:05;20.77;;;10.27;;
71665;SDS011;59503;53.486;10.196;2022-11-12T02:15:50;22.60;;;11.13;;
71665;SDS011;59503;53.486;10.196;2022-11-12T02:18:16;15.93;;;8.82;;
71665;SDS011;59503;53.486;10.196;2022-11-12T02:20:41;20.93;;;10.10;;
71665;SDS011;59503;53.486;10.196;2022-11-12T02:23:07;18.70;;;9.03;;
71665;SDS011;59503;53.486;10.196;2022-11-12T02:25:33;20.10;;;8.25;;
71665;SDS011;59503;53.486;10.196;2022-11-12T02:27:59;19.50;;;8.93;;
71665;SDS011;59503;53.486;10.196;2022-11-12T02:30:46;15.77;;;8.30;;
71665;SDS011;59503;53.486;10.196;2022-11-12T02:33:13;18.70;;;8.27;;
71665;SDS011;59503;53.486;10.196;2022-11-12T02:35:39;17.58;;;8.98;;
71665;SDS011;59503;53.486;10.196;2022-11-12T02:38:05;17.75;;;7.95;;
71665;SDS011;59503;53.486;10.196;2022-11-12T02:40:31;18.13;;;8.80;;
71665;SDS011;59503;53.486;10.196;2022-11-12T02:42:56;19.37;;;9.90;;
71665;SDS011;59503;53.486;10.196;2022-11-12T02:45:22;19.77;;;9.40;;
71665;SDS011;59503;53.486;10.196;2022-11-12T02:47:48;20.27;;;9.23;;
71665;SDS011;59503;53.486;10.196;2022-11-12T02:50:14;20.05;;;9.30;;
71665;SDS011;59503;53.486;10.196;2022-11-12T02:52:40;18.53;;;8.73;;
71665;SDS011;59503;53.486;10.196;2022-11-12T02:55:06;24.17;;;10.02;;
71665;SDS011;59503;53.486;10.196;2022-11-12T02:57:33;20.02;;;9.38;;
71665;SDS011;59503;53.486;10.196;2022-11-12T02:59:59;20.20;;;9.50;;
71665;SDS011;59503;53.486;10.196;2022-11-12T03:02:24;19.80;;;9.37;;
71665;SDS011;59503;53.486;10.196;2022-11-12T03:04:49;22.00;;;9.83;;
71665;SDS011;59503;53.486;10.196;2022-11-12T03:07:15;17.73;;;9.30;;
71665;SDS011;59503;53.486;10.196;2022-11-12T03:09:40;25.17;;;9.43;;
71665;SDS011;59503;53.486;10.196;2022-11-12T03:12:06;18.27;;;9.13;;
71665;SDS011;59503;53.486;10.196;2022-11-12T03:14:31;19.30;;;9.43;;
71665;SDS011;59503;53.486;10.196;2022-11-12T03:16:56;18.77;;;9.40;;
71665;SDS011;59503;53.486;10.196;2022-11-12T03:19:22;18.03;;;9.03;;
71665;SDS011;59503;53.486;10.196;2022-11-12T03:21:47;20.77;;;9.93;;
71665;SDS011;59503;53.486;10.196;2022-11-12T03:24:13;16.70;;;8.93;;
71665;SDS011;59503;53.486;10.196;2022-11-12T03:26:38;18.37;;;8.77;;
71665;SDS011;59503;53.486;10.196;2022-11-12T03:29:04;17.83;;;8.50;;
71665;SDS011;59503;53.486;10.196;2022-11-12T03:31:29;14.93;;;8.47;;
71665;SDS011;59503;53.486;10.196;2022-11-12T03:33:54;20.87;;;10.37;;
71665;SDS011;59503;53.486;10.196;2022-11-12T03:36:20;14.27;;;9.25;;
71665;SDS011;59503;53.486;10.196;2022-11-12T03:38:45;17.67;;;9.57;;
71665;SDS011;59503;53.486;10.196;2022-11-12T03:41:11;19.97;;;9.67;;
71665;SDS011;59503;53.486;10.196;2022-11-12T03:43:36;19.25;;;9.98;;
71665;SDS011;59503;53.486;10.196;2022-11-12T03:46:02;20.40;;;10.60;;
71665;SDS011;59503;53.486;10.196;2022-11-12T03:48:27;19.93;;;9.83;;
71665;SDS011;59503;53.486;10.196;2022-11-12T03:50:56;24.23;;;10.73;;
71665;SDS011;59503;53.486;10.196;2022-11-12T03:53:25;19.73;;;10.23;;
71665;SDS011;59503;53.486;10.196;2022-11-12T03:55:51;20.60;;;9.68;;
71665;SDS011;59503;53.486;10.196;2022-11-12T03:58:17;19.60;;;9.85;;
71665;SDS011;59503;53.486;10.196;2022-11-12T04:00:42;25.97;;;10.33;;
71665;SDS011;59503;53.486;10.196;2022-11-12T04:03:08;18.38;;;9.88;;
71665;SDS011;59503;53.486;10.196;2022-11-12T04:05:33;19.50;;;9.77;;
71665;SDS011;59503;53.486;10.196;2022-11-12T04:08:19;18.35;;;9.52;;
71665;SDS011;59503;53.486;10.196;2022-11-12T04:11:02;22.48;;;9.55;;
71665;SDS011;59503;53.486;10.196;2022-11-12T04:13:33;16.67;;;8.60;;
71665;SDS011;59503;53.486;10.196;2022-11-12T04:16:05;17.98;;;9.90;;
71665;SDS011;59503;53.486;10.196;2022-11-12T04:18:52;17.88;;;8.10;;
71665;SDS011;59503;53.486;10.196;2022-11-12T04:27:30;17.20;;;8.17;;
71665;SDS011;59503;53.486;10.196;2022-11-12T04:29:57;18.98;;;8.57;;
71665;SDS011;59503;53.486;10.196;2022-11-12T04:32:52;17.45;;;8.40;;
71665;SDS011;59503;53.486;10.196;2022-11-12T04:35:19;20.48;;;8.80;;
71665;SDS011;59503;53.486;10.196;2022-11-12T04:37:46;17.92;;;8.68;;
71665;SDS011;59503;53.486;10.196;2022-11-12T04:42:56;15.43;;;8.05;;
71665;SDS011;59503;53.486;10.196;2022-11-12T04:45:41;18.15;;;8.40;;
71665;SDS011;59503;53.486;10.196;2022-11-12T04:48:08;17.65;;;8.38;;
71665;SDS011;59503;53.486;10.196;2022-11-12T04:50:33;17.23;;;8.30;;
71665;SDS011;59503;53.486;10.196;2022-11-12T04:52:59;17.97;;;8.47;;
71665;SDS011;59503;53.486;10.196;2022-11-12T04:55:24;21.87;;;8.77;;
71665;SDS011;59503;53.486;10.196;2022-11-12T04:57:50;17.80;;;8.37;;
71665;SDS011;59503;53.486;10.196;2022-11-12T05:00:15;22.27;;;10.13;;
71665;SDS011;59503;53.486;10.196;2022-11-12T05:02:41;21.70;;;9.30;;
71665;SDS011;59503;53.486;10.196;2022-11-12T05:05:07;24.42;;;10.07;;
71665;SDS011;59503;53.486;10.196;2022-11-12T05:07:33;24.03;;;9.93;;
71665;SDS011;59503;53.486;10.196;2022-11-12T05:09:58;21.95;;;9.60;;
71665;SDS011;59503;53.486;10.196;2022-11-12T05:12:24;19.13;;;8.53;;
71665;SDS011;59503;53.486;10.196;2022-11-12T05:14:49;24.67;;;8.70;;
71665;SDS011;59503;53.486;10.196;2022-11-12T05:17:14;19.57;;;9.17;;
71665;SDS011;59503;53.486;10.196;2022-11-12T05:19:40;22.57;;;9.97;;
71665;SDS011;59503;53.486;10.196;2022-11-12T05:22:05;18.75;;;9.82;;
71665;SDS011;59503;53.486;10.196;2022-11-12T05:24:38;22.73;;;9.37;;
71665;SDS011;59503;53.486;10.196;2022-11-12T05:27:06;18.25;;;9.05;;
71665;SDS011;59503;53.486;10.196;2022-11-12T05:29:35;28.00;;;10.98;;
71665;SDS011;59503;53.486;10.196;2022-11-12T05:32:00;30.53;;;10.67;;
71665;SDS011;59503;53.486;10.196;2022-11-12T05:34:26;28.27;;;11.13;;
71665;SDS011;59503;53.486;10.196;2022-11-12T05:36:52;31.97;;;10.93;;
71665;SDS011;59503;53.486;10.196;2022-11-12T05:39:17;22.08;;;10.40;;
71665;SDS011;59503;53.486;10.196;2022-11-12T05:41:43;23.20;;;10.47;;
71665;SDS011;59503;53.486;10.196;2022-11-12T05:44:08;23.53;;;10.33;;
71665;SDS011;59503;53.486;10.196;2022-11-12T05:46:34;24.10;;;11.17;;
71665;SDS011;59503;53.486;10.196;2022-11-12T05:48:59;27.67;;;10.70;;
71665;SDS011;59503;53.486;10.196;2022-11-12T05:51:24;30.47;;;12.47;;
71665;SDS011;59503;53.486;10.196;2022-11-12T05:53:50;23.67;;;10.37;;
71665;SDS011;59503;53.486;10.196;2022-11-12T05:56:15;23.77;;;10.57;;
71665;SDS011;59503;53.486;10.196;2022-11-12T05:58:41;26.30;;;11.32;;
71665;SDS011;59503;53.486;10.196;2022-11-12T06:01:06;23.97;;;10.77;;
71665;SDS011;59503;53.486;10.196;2022-11-12T06:03:32;23.20;;;9.80;;
71665;SDS011;59503;53.486;10.196;2022-11-12T06:05:57;27.08;;;11.27;;
71665;SDS011;59503;53.486;10.196;2022-11-12T06:08:23;27.53;;;12.40;;
71665;SDS011;59503;53.486;10.196;2022-11-12T06:10:49;26.70;;;11.60;;
71665;SDS011;59503;53.486;10.196;2022-11-12T06:13:15;28.52;;;10.45;;
71665;SDS011;59503;53.486;10.196;2022-11-12T06:15:41;27.30;;;10.73;;
71665;SDS011;59503;53.486;10.196;2022-11-12T06:18:07;27.05;;;12.35;;
71665;SDS011;59503;53.486;10.196;2022-11-12T06:20:33;35.10;;;12.80;;
71665;SDS011;59503;53.486;10.196;2022-11-12T06:22:59;37.28;;;12.90;;
71665;SDS011;59503;53.486;10.196;2022-11-12T06:25:24;37.30;;;13.33;;
71665;SDS011;59503;53.486;10.196;2022-11-12T06:27:50;33.53;;;12.15;;
71665;SDS011;59503;53.486;10.196;2022-11-12T06:30:16;31.97;;;13.00;;
71665;SDS011;59503;53.486;10.196;2022-11-12T06:32:44;35.90;;;14.10;;
71665;SDS011;59503;53.486;10.196;2022-11-12T06:35:11;36.92;;;14.60;;
71665;SDS011;59503;53.486;10.196;2022-11-12T06:37:36;33.57;;;13.20;;
71665;SDS011;59503;53.486;10.196;2022-11-12T06:40:02;34.30;;;13.73;;
71665;SDS011;59503;53.486;10.196;2022-11-12T06:42:28;33.97;;;13.00;;
71665;SDS011;59503;53.486;10.196;2022-11-12T06:44:53;37.50;;;13.53;;
71665;SDS011;59503;53.486;10.196;2022-11-12T06:47:18;38.88;;;14.15;;
71665;SDS011;59503;53.486;10.196;2022-11-12T06:49:44;33.27;;;13.10;;
71665;SDS011;59503;53.486;10.196;2022-11-12T06:52:09;34.87;;;12.93;;
71665;SDS011;59503;53.486;10.196;2022-11-12T06:54:34;38.90;;;13.47;;
71665;SDS011;59503;53.486;10.196;2022-11-12T06:57:00;38.93;;;14.00;;
71665;SDS011;59503;53.486;10.196;2022-11-12T06:59:25;36.22;;;13.65;;
71665;SDS011;59503;53.486;10.196;2022-11-12T07:01:51;25.33;;;11.10;;
71665;SDS011;59503;53.486;10.196;2022-11-12T07:04:17;30.97;;;11.73;;
71665;SDS011;59503;53.486;10.196;2022-11-12T07:06:43;24.83;;;10.90;;
71665;SDS011;59503;53.486;10.196;2022-11-12T07:09:11;24.30;;;10.73;;
71665;SDS011;59503;53.486;10.196;2022-11-12T07:11:39;57.87;;;26.57;;
71665;SDS011;59503;53.486;10.196;2022-11-12T07:14:05;55.38;;;29.92;;
71665;SDS011;59503;53.486;10.196;2022-11-12T07:16:31;43.15;;;22.15;;
71665;SDS011;59503;53.486;10.196;2022-11-12T07:18:56;78.70;;;35.20;;
71665;SDS011;59503;53.486;10.196;2022-11-12T07:21:22;37.10;;;17.30;;
71665;SDS011;59503;53.486;10.196;2022-11-12T07:23:47;26.50;;;11.43;;
71665;SDS011;59503;53.486;10.196;2022-11-12T07:29:08;44.97;;;20.43;;
71665;SDS011;59503;53.486;10.196;2022-11-12T07:31:43;31.27;;;12.93;;
71665;SDS011;59503;53.486;10.196;2022-11-12T07:34:36;25.75;;;10.88;;
71665;SDS011;59503;53.486;10.196;2022-11-12T07:37:01;22.80;;;9.50;;
71665;SDS011;59503;53.486;10.196;2022-11-12T07:39:27;33.23;;;15.30;;
71665;SDS011;59503;53.486;10.196;2022-11-12T07:41:52;50.13;;;26.43;;
71665;SDS011;59503;53.486;10.196;2022-11-12T07:44:17;59.38;;;31.48;;
71665;SDS011;59503;53.486;10.196;2022-11-12T07:46:49;37.60;;;18.43;;
71665;SDS011;59503;53.486;10.196;2022-11-12T07:49:15;57.08;;;24.90;;
71665;SDS011;59503;53.486;10.196;2022-11-12T07:51:40;51.00;;;21.23;;
71665;SDS011;59503;53.486;10.196;2022-11-12T07:54:06;29.37;;;12.47;;
71665;SDS011;59503;53.486;10.196;2022-11-12T07:59:49;102.45;;;41.30;;
71665;SDS011;59503;53.486;10.196;2022-11-12T08:02:19;38.38;;;15.25;;
71665;SDS011;59503;53.486;10.196;2022-11-12T08:04:47;31.90;;;13.88;;
71665;SDS011;59503;53.486;10.196;2022-11-12T08:07:13;53.40;;;20.87;;
71665;SDS011;59503;53.486;10.196;2022-11-12T08:09:38;35.20;;;14.63;;
71665;SDS011;59503;53.486;10.196;2022-11-12T08:12:04;104.17;;;42.90;;
71665;SDS011;59503;53.486;10.196;2022-11-12T08:14:31;43.47;;;17.50;;
71665;SDS011;59503;53.486;10.196;2022-11-12T08:17:08;23.30;;;10.77;;
71665;SDS011;59503;53.486;10.196;2022-11-12T08:19:33;22.83;;;9.87;;
71665;SDS011;59503;53.486;10.196;2022-11-12T08:22:02;21.77;;;9.40;;
71665;SDS011;59503;53.486;10.196;2022-11-12T08:24:27;22.95;;;10.00;;
71665;SDS011;59503;53.486;10.196;2022-11-12T08:26:52;25.57;;;10.57;;
71665;SDS011;59503;53.486;10.196;2022-11-12T08:29:18;23.40;;;9.93;;
71665;SDS011;59503;53.486;10.196;2022-11-12T08:31:44;28.40;;;14.15;;
71665;SDS011;59503;53.486;10.196;2022-11-12T08:43:48;14.40;;;7.65;;
71665;SDS011;59503;53.486;10.196;2022-11-12T08:46:13;19.97;;;8.00;;
71665;SDS011;59503;53.486;10.196;2022-11-12T08:48:39;20.85;;;9.32;;
71665;SDS011;59503;53.486;10.196;2022-11-12T08:51:04;18.73;;;8.70;;
71665;SDS011;59503;53.486;10.196;2022-11-12T08:53:30;18.60;;;8.25;;
71665;SDS011;59503;53.486;10.196;2022-11-12T08:55:56;18.83;;;9.03;;
71665;SDS011;59503;53.486;10.196;2022-11-12T08:58:22;22.43;;;8.63;;
71665;SDS011;59503;53.486;10.196;2022-11-12T09:00:49;20.48;;;8.57;;
71665;SDS011;59503;53.486;10.196;2022-11-12T09:03:22;34.88;;;10.45;;
71665;SDS011;59503;53.486;10.196;2022-11-12T09:05:49;21.65;;;10.23;;
71665;SDS011;59503;53.486;10.196;2022-11-12T09:08:17;22.13;;;9.48;;
71665;SDS011;59503;53.486;10.196;2022-11-12T09:10:44;18.07;;;9.20;;
71665;SDS011;59503;53.486;10.196;2022-11-12T09:13:10;16.58;;;8.60;;
71665;SDS011;59503;53.486;10.196;2022-11-12T09:15:36;18.10;;;8.75;;
71665;SDS011;59503;53.486;10.196;2022-11-12T09:18:02;18.70;;;8.37;;
71665;SDS011;59503;53.486;10.196;2022-11-12T09:20:30;19.05;;;8.55;;
71665;SDS011;59503;53.486;10.196;2022-11-12T09:22:59;19.10;;;8.97;;
71665;SDS011;59503;53.486;10.196;2022-11-12T09:25:26;16.33;;;9.90;;
71665;SDS011;59503;53.486;10.196;2022-11-12T09:27:51;16.00;;;9.07;;
71665;SDS011;59503;53.486;10.196;2022-11-12T09:30:17;34.88;;;15.48;;
71665;SDS011;59503;53.486;10.196;2022-11-12T09:32:43;19.73;;;10.03;;
71665;SDS011;59503;53.486;10.196;2022-11-12T09:35:08;15.80;;;8.13;;
71665;SDS011;59503;53.486;10.196;2022-11-12T09:37:36;42.35;;;24.58;;
71665;SDS011;59503;53.486;10.196;2022-11-12T09:40:02;20.53;;;8.23;;
71665;SDS011;59503;53.486;10.196;2022-11-12T09:42:28;19.65;;;8.80;;
71665;SDS011;59503;53.486;10.196;2022-11-12T09:44:55;17.13;;;7.93;;
71665;SDS011;59503;53.486;10.196;2022-11-12T09:47:49;18.20;;;7.80;;
71665;SDS011;59503;53.486;10.196;2022-11-12T09:50:28;16.98;;;8.57;;
71665;SDS011;59503;53.486;10.196;2022-11-12T09:53:02;15.60;;;8.23;;
71665;SDS011;59503;53.486;10.196;2022-11-12T09:55:33;15.00;;;7.68;;
71665;SDS011;59503;53.486;10.196;2022-11-12T09:58:07;14.88;;;7.40;;
71665;SDS011;59503;53.486;10.196;2022-11-12T10:00:35;13.25;;;7.13;;
71665;SDS011;59503;53.486;10.196;2022-11-12T10:03:11;15.70;;;7.80;;
71665;SDS011;59503;53.486;10.196;2022-11-12T10:05:47;14.40;;;7.17;;
71665;SDS011;59503;53.486;10.196;2022-11-12T10:19:30;16.20;;;7.03;;
71665;SDS011;59503;53.486;10.196;2022-11-12T10:21:59;12.38;;;6.53;;
71665;SDS011;59503;53.486;10.196;2022-11-12T10:24:56;17.48;;;7.28;;
71665;SDS011;59503;53.486;10.196;2022-11-12T10:27:35;13.02;;;6.80;;
71665;SDS011;59503;53.486;10.196;2022-11-12T10:30:04;13.95;;;6.75;;
71665;SDS011;59503;53.486;10.196;2022-11-12T10:32:34;13.90;;;5.87;;
71665;SDS011;59503;53.486;10.196;2022-11-12T10:35:01;11.93;;;5.82;;
71665;SDS011;59503;53.486;10.196;2022-11-12T10:37:28;12.33;;;6.30;;
71665;SDS011;59503;53.486;10.196;2022-11-12T10:45:44;11.82;;;5.60;;
71665;SDS011;59503;53.486;10.196;2022-11-12T10:48:21;11.20;;;5.38;;
71665;SDS011;59503;53.486;10.196;2022-11-12T10:50:57;11.40;;;6.17;;
71665;SDS011;59503;53.486;10.196;2022-11-12T10:53:32;13.73;;;6.78;;
71665;SDS011;59503;53.486;10.196;2022-11-12T10:56:04;12.02;;;5.93;;
71665;SDS011;59503;53.486;10.196;2022-11-12T11:01:42;10.55;;;5.93;;
71665;SDS011;59503;53.486;10.196;2022-11-12T11:04:16;11.73;;;6.03;;
71665;SDS011;59503;53.486;10.196;2022-11-12T11:09:56;11.85;;;5.95;;
71665;SDS011;59503;53.486;10.196;2022-11-12T11:12:25;11.50;;;6.20;;
71665;SDS011;59503;53.486;10.196;2022-11-12T11:17:47;10.85;;;5.88;;
71665;SDS011;59503;53.486;10.196;2022-11-12T11:20:16;11.23;;;6.50;;
71665;SDS011;59503;53.486;10.196;2022-11-12T11:22:49;10.83;;;6.00;;
71665;SDS011;59503;53.486;10.196;2022-11-12T11:25:24;11.65;;;5.25;;
71665;SDS011;59503;53.486;10.196;2022-11-12T11:28:03;10.90;;;6.20;;
71665;SDS011;59503;53.486;10.196;2022-11-12T11:30:36;12.75;;;6.35;;
71665;SDS011;59503;53.486;10.196;2022-11-12T11:41:13;13.13;;;6.50;;
71665;SDS011;59503;53.486;10.196;2022-11-12T11:49:22;14.53;;;7.07;;
71665;SDS011;59503;53.486;10.196;2022-11-12T11:51:54;12.90;;;6.03;;
71665;SDS011;59503;53.486;10.196;2022-11-12T11:57:27;19.20;;;7.10;;
71665;SDS011;59503;53.486;10.196;2022-11-12T12:00:14;16.83;;;7.72;;
71665;SDS011;59503;53.486;10.196;2022-11-12T12:05:41;18.35;;;7.63;;
71665;SDS011;59503;53.486;10.196;2022-11-12T12:11:03;14.73;;;6.82;;
71665;SDS011;59503;53.486;10.196;2022-11-12T12:21:48;12.48;;;6.55;;
71665;SDS011;59503;53.486;10.196;2022-11-12T12:24:26;12.67;;;6.73;;
71665;SDS011;59503;53.486;10.196;2022-11-12T12:26:56;13.52;;;6.60;;
71665;SDS011;59503;53.486;10.196;2022-11-12T12:29:33;14.43;;;6.85;;
71665;SDS011;59503;53.486;10.196;2022-11-12T12:32:15;10.57;;;5.32;;
71665;SDS011;59503;53.486;10.196;2022-11-12T12:34:51;12.13;;;6.18;;
71665;SDS011;59503;53.486;10.196;2022-11-12T12:37:29;13.20;;;6.33;;
71665;SDS011;59503;53.486;10.196;2022-11-12T12:40:12;14.43;;;6.15;;
71665;SDS011;59503;53.486;10.196;2022-11-12T12:42:47;13.30;;;7.53;;
71665;SDS011;59503;53.486;10.196;2022-11-12T12:45:29;15.15;;;7.47;;
71665;SDS011;59503;53.486;10.196;2022-11-12T12:48:03;13.70;;;7.35;;
71665;SDS011;59503;53.486;10.196;2022-11-12T12:50:37;16.47;;;7.57;;
71665;SDS011;59503;53.486;10.196;2022-11-12T12:55:43;13.35;;;7.15;;
71665;SDS011;59503;53.486;10.196;2022-11-12T13:00:45;17.15;;;7.10;;
71665;SDS011;59503;53.486;10.196;2022-11-12T13:03:42;16.03;;;7.03;;
71665;SDS011;59503;53.486;10.196;2022-11-12T13:28:16;13.15;;;6.93;;
71665;SDS011;59503;53.486;10.196;2022-11-12T13:37:48;11.57;;;6.45;;
71665;SDS011;59503;53.486;10.196;2022-11-12T13:42:46;10.10;;;5.50;;
71665;SDS011;59503;53.486;10.196;2022-11-12T13:45:12;11.10;;;6.07;;
71665;SDS011;59503;53.486;10.196;2022-11-12T13:47:38;15.55;;;7.53;;
71665;SDS011;59503;53.486;10.196;2022-11-12T13:50:05;12.10;;;6.50;;
71665;SDS011;59503;53.486;10.196;2022-11-12T13:52:33;13.15;;;6.47;;
71665;SDS011;59503;53.486;10.196;2022-11-12T13:55:00;13.13;;;6.63;;
71665;SDS011;59503;53.486;10.196;2022-11-12T13:57:28;11.63;;;6.55;;
71665;SDS011;59503;53.486;10.196;2022-11-12T14:02:45;14.75;;;7.10;;
71665;SDS011;59503;53.486;10.196;2022-11-12T14:05:15;11.27;;;6.20;;
71665;SDS011;59503;53.486;10.196;2022-11-12T14:21:19;14.30;;;6.47;;
71665;SDS011;59503;53.486;10.196;2022-11-12T14:23:45;10.68;;;6.07;;
71665;SDS011;59503;53.486;10.196;2022-11-12T14:26:14;14.88;;;7.15;;
71665;SDS011;59503;53.486;10.196;2022-11-12T14:29:01;19.60;;;9.45;;
71665;SDS011;59503;53.486;10.196;2022-11-12T14:31:28;18.00;;;8.30;;
71665;SDS011;59503;53.486;10.196;2022-11-12T14:33:53;15.00;;;8.50;;
71665;SDS011;59503;53.486;10.196;2022-11-12T14:36:18;12.80;;;7.23;;
71665;SDS011;59503;53.486;10.196;2022-11-12T14:38:45;14.52;;;8.82;;
71665;SDS011;59503;53.486;10.196;2022-11-12T14:43:56;17.77;;;9.33;;
71665;SDS011;59503;53.486;10.196;2022-11-12T14:46:37;18.30;;;10.55;;
71665;SDS011;59503;53.486;10.196;2022-11-12T14:49:04;18.80;;;10.75;;
71665;SDS011;59503;53.486;10.196;2022-11-12T14:51:39;21.52;;;12.40;;
71665;SDS011;59503;53.486;10.196;2022-11-12T14:54:31;21.13;;;11.18;;
71665;SDS011;59503;53.486;10.196;2022-11-12T14:57:01;19.57;;;11.33;;
71665;SDS011;59503;53.486;10.196;2022-11-12T14:59:28;21.70;;;11.65;;
71665;SDS011;59503;53.486;10.196;2022-11-12T15:02:12;23.88;;;10.88;;
71665;SDS011;59503;53.486;10.196;2022-11-12T15:04:42;21.23;;;10.60;;
71665;SDS011;59503;53.486;10.196;2022-11-12T15:07:25;20.38;;;10.23;;
71665;SDS011;59503;53.486;10.196;2022-11-12T15:09:58;23.73;;;11.90;;
71665;SDS011;59503;53.486;10.196;2022-11-12T15:12:27;21.08;;;11.65;;
71665;SDS011;59503;53.486;10.196;2022-11-12T15:15:05;26.80;;;12.90;;
71665;SDS011;59503;53.486;10.196;2022-11-12T15:17:41;26.05;;;11.40;;
71665;SDS011;59503;53.486;10.196;2022-11-12T15:20:25;20.63;;;11.55;;
71665;SDS011;59503;53.486;10.196;2022-11-12T15:22:51;20.63;;;10.93;;
71665;SDS011;59503;53.486;10.196;2022-11-12T15:25:22;20.60;;;11.05;;
71665;SDS011;59503;53.486;10.196;2022-11-12T15:27:48;23.25;;;12.32;;
71665;SDS011;59503;53.486;10.196;2022-11-12T15:30:15;19.42;;;10.68;;
71665;SDS011;59503;53.486;10.196;2022-11-12T15:32:44;21.98;;;9.85;;
71665;SDS011;59503;53.486;10.196;2022-11-12T15:35:20;21.07;;;10.57;;
71665;SDS011;59503;53.486;10.196;2022-11-12T15:37:58;22.38;;;10.05;;
71665;SDS011;59503;53.486;10.196;2022-11-12T15:40:26;19.23;;;10.05;;
71665;SDS011;59503;53.486;10.196;2022-11-12T15:42:52;18.33;;;9.90;;
71665;SDS011;59503;53.486;10.196;2022-11-12T15:45:19;19.13;;;10.63;;
71665;SDS011;59503;53.486;10.196;2022-11-12T15:47:45;20.48;;;9.38;;
71665;SDS011;59503;53.486;10.196;2022-11-12T15:52:41;23.42;;;10.75;;
71665;SDS011;59503;53.486;10.196;2022-11-12T15:55:06;20.33;;;10.50;;
71665;SDS011;59503;53.486;10.196;2022-11-12T15:57:35;22.98;;;10.27;;
71665;SDS011;59503;53.486;10.196;2022-11-12T16:00:08;15.57;;;9.23;;
71665;SDS011;59503;53.486;10.196;2022-11-12T16:02:45;24.98;;;10.65;;
71665;SDS011;59503;53.486;10.196;2022-11-12T16:05:15;28.98;;;12.07;;
71665;SDS011;59503;53.486;10.196;2022-11-12T16:07:42;22.95;;;11.60;;
71665;SDS011;59503;53.486;10.196;2022-11-12T16:10:11;25.23;;;11.43;;
71665;SDS011;59503;53.486;10.196;2022-11-12T16:12:38;24.63;;;12.45;;
71665;SDS011;59503;53.486;10.196;2022-11-12T16:15:08;28.50;;;13.37;;
71665;SDS011;59503;53.486;10.196;2022-11-12T16:17:37;31.50;;;14.43;;
71665;SDS011;59503;53.486;10.196;2022-11-12T16:20:10;35.47;;;14.35;;
71665;SDS011;59503;53.486;10.196;2022-11-12T16:22:40;30.20;;;14.50;;
71665;SDS011;59503;53.486;10.196;2022-11-12T16:25:06;41.78;;;19.45;;
71665;SDS011;59503;53.486;10.196;2022-11-12T16:27:31;41.13;;;20.47;;
71665;SDS011;59503;53.486;10.196;2022-11-12T16:29:57;36.78;;;19.45;;
71665;SDS011;59503;53.486;10.196;2022-11-12T16:32:22;34.10;;;16.80;;
71665;SDS011;59503;53.486;10.196;2022-11-12T16:34:48;31.43;;;16.53;;
71665;SDS011;59503;53.486;10.196;2022-11-12T16:37:13;35.50;;;16.73;;
71665;SDS011;59503;53.486;10.196;2022-11-12T16:39:40;32.92;;;16.98;;
71665;SDS011;59503;53.486;10.196;2022-11-12T16:42:08;30.60;;;16.83;;
71665;SDS011;59503;53.486;10.196;2022-11-12T16:44:34;41.50;;;20.40;;